메인 페이지
METAR-TAF:

METAR-TAF

공항 :

Punta Arenas, 칠레

위도: 53-00S, 경도: 070-51W, 고도: 37m

현재 날씨관측

예보는 17분 전, 20:00시(UTC)에 발표되었습니다.
5kt북동풍과 남동풍을 오가는
온도 4°C
습도 56%
기압 1009 hPa
시정 10km 이상
고도 4000ft 상공 구름 조금
고도 6600ft 상공 구름 많음

METAR: SCCI 182000Z 10005KT 050V140 9999 FEW040 BKN066 04/M04 Q1009 NOSIG

시각: 17:17 (20:17 UTC)

예보

예보는 3 시간 27분 전, 16:50시(UTC)에 발표되었습니다.
예보 대상 시간: 18일 18시부터 19일 18시까지 (UTC)
남남동7kt
시정 10km 이상
고도 3400ft 상공 구름 조금
고도 4500ft 상공 구름 많음
일시적
18일 22시부터 19일 00시까지 (UTC)
시정: 9000m
고도 3000ft 상공 구름 많음
약한비, 이슬비
전환 중
19일 00시부터 19일 02시까지 (UTC)
북북동5kt
고도 2500ft 상공 구름 조금
고도 3500ft 상공 구름 보통
일시적
19일 03시부터 19일 10시까지 (UTC)
여러 방향의 바람 2kt
고도 1100ft 상공 구름 보통
전환 중
19일 06시부터 19일 08시까지 (UTC)
5kt
고도 2000ft 상공 구름 보통
전환 중
19일 14시부터 19일 16시까지 (UTC)
고도 4000ft 상공 구름 조금

TAF: SCCI 181650Z 1818/1918 15007KT 9999 FEW034 BKN045 TN01/1912Z TX05/1818Z TEMPO 1822/1900 9000 -RADZ BKN030 BECMG 1900/1902 03005KT FEW025 SCT035 TEMPO 1903/1910 VRB02KT SCT011 BECMG 1906/1908 10005KT SCT020 BECMG 1914/1916 FEW040

4,000개 이상의 공항 관측 자료 및 예보 (METAR 및 TAF 보고).

지도상에서 검색 가능한 기상관측소가 노란 점과 빨간 점으로 표시되어 있습니다.

기상관측소 명을 보려면 표시 위로 마우스를 이동하세요.

날씨 관측과 예보를 보려면 클릭하세요.

지도 변경 : 확대하려면 엑스 표시가 있는 녹색 버튼, 축소하려면 빼기 표시가 있는 녹색 버튼, 다음 페이지의 지도를 보려면 녹색 화살표를 클릭하세요.


METAR-TAF: